createdAt,value
2022-09-18T00:02:24.338Z,10.27
2022-09-18T00:04:51.111Z,10.27
2022-09-18T00:07:17.988Z,10.27
2022-09-18T00:09:45.010Z,10.27
2022-09-18T00:12:11.992Z,10.26
2022-09-18T00:14:38.852Z,10.26
2022-09-18T00:17:09.005Z,10.26
2022-09-18T00:19:36.196Z,10.28
2022-09-18T00:22:02.963Z,10.29
2022-09-18T00:24:29.926Z,10.29
2022-09-18T00:26:56.693Z,10.29
2022-09-18T00:29:23.502Z,10.29
2022-09-18T00:31:50.630Z,10.30
2022-09-18T00:34:17.388Z,10.30
2022-09-18T00:36:44.585Z,10.31
2022-09-18T00:39:12.414Z,10.29
2022-09-18T00:41:41.915Z,10.29
2022-09-18T00:44:31.498Z,10.28
2022-09-18T00:47:07.171Z,10.29
2022-09-18T00:49:34.615Z,10.28
2022-09-18T00:52:02.463Z,10.27
2022-09-18T00:54:37.300Z,10.27
2022-09-18T00:57:27.227Z,10.24
2022-09-18T00:59:54.865Z,10.26
2022-09-18T01:02:22.080Z,10.27
2022-09-18T01:04:50.282Z,10.28
2022-09-18T01:07:29.153Z,10.27
2022-09-18T01:10:12.857Z,10.27
2022-09-18T01:13:01.190Z,10.26
2022-09-18T01:15:28.105Z,10.28
2022-09-18T01:18:05.615Z,10.31
2022-09-18T01:20:53.580Z,10.31
2022-09-18T01:23:57.678Z,10.32
2022-09-18T01:26:41.431Z,10.32
2022-09-18T01:29:28.491Z,10.31
2022-09-18T01:32:01.511Z,10.29
2022-09-18T01:34:49.915Z,10.27
2022-09-18T01:37:38.472Z,10.21
2022-09-18T01:40:17.544Z,10.19
2022-09-18T01:42:47.534Z,10.16
2022-09-18T01:45:20.305Z,10.13
2022-09-18T01:48:01.427Z,10.12
2022-09-18T01:50:32.603Z,10.09
2022-09-18T01:53:08.517Z,10.09
2022-09-18T01:55:38.548Z,10.04
2022-09-18T01:58:19.086Z,10.01
2022-09-18T02:00:51.405Z,10.00
2022-09-18T02:03:27.890Z,9.97
2022-09-18T02:06:00.627Z,9.95
2022-09-18T02:08:41.527Z,9.93
2022-09-18T02:11:13.663Z,9.90
2022-09-18T02:14:16.427Z,9.87
2022-09-18T02:16:46.522Z,9.86
2022-09-18T02:19:28.614Z,9.83
2022-09-18T02:21:58.638Z,9.84
2022-09-18T02:24:31.285Z,9.83
2022-09-18T02:27:01.798Z,9.83
2022-09-18T02:29:30.584Z,9.82
2022-09-18T02:32:00.104Z,9.82
2022-09-18T02:34:27.920Z,9.81
2022-09-18T02:37:16.203Z,9.79
2022-09-18T02:40:18.304Z,9.78
2022-09-18T02:42:59.192Z,9.71
2022-09-18T02:45:36.869Z,9.68
2022-09-18T02:48:12.599Z,9.64
2022-09-18T02:51:08.670Z,9.56
2022-09-18T02:53:51.675Z,9.52
2022-09-18T02:56:41.203Z,9.51
2022-09-18T02:59:18.055Z,9.48
2022-09-18T03:01:46.268Z,9.47
2022-09-18T03:04:19.294Z,9.45
2022-09-18T03:06:46.046Z,9.44
2022-09-18T03:09:13.714Z,9.42
2022-09-18T03:11:40.643Z,9.40
2022-09-18T03:14:07.620Z,9.40
2022-09-18T03:16:34.435Z,9.37
2022-09-18T03:19:01.575Z,9.37
2022-09-18T03:21:28.411Z,9.36
2022-09-18T03:23:55.432Z,9.29
2022-09-18T03:26:23.096Z,9.25
2022-09-18T03:28:50.029Z,9.23
2022-09-18T03:31:16.839Z,9.20
2022-09-18T03:33:43.867Z,9.12
2022-09-18T03:36:10.637Z,9.05
2022-09-18T03:38:37.886Z,9.02
2022-09-18T03:41:05.127Z,9.02
2022-09-18T03:43:31.910Z,8.98
2022-09-18T03:45:58.688Z,8.99
2022-09-18T03:48:25.643Z,9.00
2022-09-18T03:50:52.415Z,9.00
2022-09-18T03:53:19.448Z,8.97
2022-09-18T03:55:49.395Z,8.95
2022-09-18T03:58:16.561Z,8.97
2022-09-18T04:00:43.493Z,8.97
2022-09-18T04:03:10.655Z,8.99
2022-09-18T04:05:37.589Z,9.01
2022-09-18T04:08:05.356Z,9.00
2022-09-18T04:10:33.102Z,9.02
2022-09-18T04:12:59.889Z,9.05
2022-09-18T04:15:26.582Z,9.06
2022-09-18T04:17:53.504Z,9.04
2022-09-18T04:20:20.240Z,9.06
2022-09-18T04:22:47.003Z,9.08
2022-09-18T04:25:13.968Z,9.12
2022-09-18T04:27:40.687Z,9.14
2022-09-18T04:30:08.552Z,9.13
2022-09-18T04:32:35.578Z,9.16
2022-09-18T04:35:02.650Z,9.19
2022-09-18T04:37:29.472Z,9.19
2022-09-18T04:39:57.232Z,9.19
2022-09-18T04:42:24.052Z,9.21
2022-09-18T04:44:50.807Z,9.23
2022-09-18T04:47:17.767Z,9.23
2022-09-18T04:49:44.503Z,9.26
2022-09-18T04:52:11.275Z,9.28
2022-09-18T04:54:38.253Z,9.29
2022-09-18T04:57:05.412Z,9.31
2022-09-18T04:59:32.119Z,9.32
2022-09-18T05:01:59.500Z,9.34
2022-09-18T05:04:26.315Z,9.37
2022-09-18T05:06:53.128Z,9.38
2022-09-18T05:09:20.126Z,9.35
2022-09-18T05:11:47.242Z,9.38
2022-09-18T05:14:14.029Z,9.38
2022-09-18T05:16:41.110Z,9.40
2022-09-18T05:19:07.891Z,9.41
2022-09-18T05:21:34.809Z,9.43
2022-09-18T05:24:02.071Z,9.46
2022-09-18T05:26:30.435Z,9.49
2022-09-18T05:28:57.415Z,9.51
2022-09-18T05:31:24.585Z,9.53
2022-09-18T05:33:51.489Z,9.56
2022-09-18T05:36:18.223Z,9.57
2022-09-18T05:38:45.697Z,9.57
2022-09-18T05:41:12.479Z,9.59
2022-09-18T05:43:39.238Z,9.61
2022-09-18T05:46:06.607Z,9.63
2022-09-18T05:48:33.369Z,9.64
2022-09-18T05:51:00.130Z,9.68
2022-09-18T05:53:27.141Z,9.69
2022-09-18T05:55:53.932Z,9.68
2022-09-18T05:58:21.284Z,9.72
2022-09-18T06:00:48.759Z,9.76
2022-09-18T06:03:16.900Z,9.81
2022-09-18T06:05:50.889Z,9.85
2022-09-18T06:08:18.173Z,9.88
2022-09-18T06:10:45.098Z,9.94
2022-09-18T06:13:15.678Z,9.98
2022-09-18T06:15:52.381Z,9.97
2022-09-18T06:18:19.794Z,10.03
2022-09-18T06:20:55.683Z,10.07
2022-09-18T06:23:24.501Z,10.10
2022-09-18T06:26:02.807Z,10.10
2022-09-18T06:28:34.154Z,10.13
2022-09-18T06:31:03.255Z,10.14
2022-09-18T06:33:30.096Z,10.14
2022-09-18T06:35:56.881Z,10.10
2022-09-18T06:38:23.899Z,10.04
2022-09-18T06:40:54.657Z,9.94
2022-09-18T06:43:21.453Z,9.86
2022-09-18T06:45:53.196Z,9.79
2022-09-18T06:48:20.460Z,9.76
2022-09-18T06:51:13.305Z,9.75
2022-09-18T06:53:40.268Z,9.79
2022-09-18T06:56:07.012Z,9.81
2022-09-18T06:58:33.782Z,9.73
2022-09-18T07:01:01.179Z,9.62
2022-09-18T07:03:28.131Z,9.61
2022-09-18T07:05:54.983Z,9.58
2022-09-18T07:08:21.961Z,9.58
2022-09-18T07:10:48.767Z,9.59
2022-09-18T07:13:15.853Z,9.55
2022-09-18T07:15:46.663Z,9.51
2022-09-18T07:18:13.427Z,9.53
2022-09-18T07:20:40.268Z,9.56
2022-09-18T07:23:07.199Z,9.56
2022-09-18T07:25:34.699Z,9.57
2022-09-18T07:28:08.033Z,9.61
2022-09-18T07:30:36.291Z,9.63
2022-09-18T07:33:04.683Z,9.71
2022-09-18T07:35:32.865Z,9.74
2022-09-18T07:38:00.746Z,9.74
2022-09-18T07:40:28.512Z,9.69
2022-09-18T07:43:00.566Z,9.64
2022-09-18T07:45:27.783Z,9.57
2022-09-18T07:47:54.679Z,9.50
2022-09-18T07:50:23.051Z,9.42
2022-09-18T07:52:55.020Z,9.36
2022-09-18T07:55:23.135Z,9.21
2022-09-18T07:57:58.436Z,9.13
2022-09-18T08:00:26.881Z,9.08
2022-09-18T08:03:03.433Z,9.05
2022-09-18T08:05:30.880Z,9.01
2022-09-18T08:08:03.340Z,9.00
2022-09-18T08:10:30.951Z,9.03
2022-09-18T08:12:58.083Z,9.03
2022-09-18T08:15:25.131Z,9.05
2022-09-18T08:17:52.228Z,9.08
2022-09-18T08:20:19.275Z,8.99
2022-09-18T08:22:46.906Z,8.97
2022-09-18T08:25:14.801Z,8.90
2022-09-18T08:27:42.204Z,8.83
2022-09-18T08:30:12.184Z,8.80
2022-09-18T08:32:40.653Z,8.84
2022-09-18T08:35:10.987Z,8.85
2022-09-18T08:37:37.960Z,8.85
2022-09-18T08:40:05.698Z,8.87
2022-09-18T08:42:33.516Z,8.92
2022-09-18T08:45:09.245Z,9.01
2022-09-18T08:47:41.554Z,9.06
2022-09-18T08:50:24.650Z,9.06
2022-09-18T08:52:58.185Z,9.11
2022-09-18T08:55:31.116Z,9.16
2022-09-18T08:58:07.015Z,9.25
2022-09-18T09:00:55.032Z,9.36
2022-09-18T09:03:25.100Z,9.51
2022-09-18T09:05:56.455Z,9.59
2022-09-18T09:08:36.522Z,9.67
2022-09-18T09:11:03.218Z,9.77
2022-09-18T09:13:45.670Z,9.86
2022-09-18T09:16:24.049Z,9.88
2022-09-18T09:19:00.345Z,9.89
2022-09-18T09:21:39.107Z,10.01
2022-09-18T09:24:24.876Z,9.97
2022-09-18T09:26:54.013Z,10.02
2022-09-18T09:29:20.866Z,10.09
2022-09-18T09:31:54.161Z,10.26
2022-09-18T09:34:44.473Z,10.22
2022-09-18T09:37:20.544Z,10.09
2022-09-18T09:39:57.251Z,10.09
2022-09-18T09:42:27.088Z,10.20
2022-09-18T09:45:02.388Z,10.28
2022-09-18T09:47:30.349Z,10.38
2022-09-18T09:50:09.083Z,10.38
2022-09-18T09:52:38.023Z,10.45
2022-09-18T09:55:07.511Z,10.64
2022-09-18T09:57:44.098Z,10.78
2022-09-18T10:00:15.560Z,10.92
2022-09-18T10:03:04.360Z,10.94
2022-09-18T10:05:31.287Z,11.05
2022-09-18T10:08:23.986Z,11.20
2022-09-18T10:11:01.420Z,11.24
2022-09-18T10:13:31.511Z,11.27
2022-09-18T10:16:03.270Z,11.27
2022-09-18T10:18:34.323Z,11.37
2022-09-18T10:21:23.931Z,11.42
2022-09-18T10:23:55.084Z,11.45
2022-09-18T10:26:28.295Z,11.52
2022-09-18T10:28:55.323Z,11.67
2022-09-18T10:31:22.248Z,11.80
2022-09-18T10:33:53.172Z,11.84
2022-09-18T10:36:42.934Z,11.95
2022-09-18T10:39:31.720Z,12.10
2022-09-18T10:42:00.492Z,12.31
2022-09-18T10:44:30.748Z,12.61
2022-09-18T10:47:10.315Z,12.77
2022-09-18T10:49:52.430Z,12.99
2022-09-18T10:52:34.486Z,13.29
2022-09-18T10:55:09.282Z,13.56
2022-09-18T10:57:47.975Z,13.62
2022-09-18T11:00:21.122Z,13.85
2022-09-18T11:02:52.882Z,14.23
2022-09-18T11:05:22.953Z,14.40
2022-09-18T11:07:56.262Z,14.27
2022-09-18T11:10:25.746Z,14.10
2022-09-18T11:12:59.003Z,13.96
2022-09-18T11:15:29.968Z,13.88
2022-09-18T11:17:59.004Z,14.10
2022-09-18T11:20:32.837Z,14.32
2022-09-18T11:23:29.009Z,14.43
2022-09-18T11:26:26.961Z,14.63
2022-09-18T11:28:59.966Z,14.49
2022-09-18T11:31:38.404Z,14.52
2022-09-18T11:34:18.434Z,14.55
2022-09-18T11:36:49.177Z,14.62
2022-09-18T11:39:24.648Z,14.81
2022-09-18T11:41:54.204Z,14.66
2022-09-18T11:44:31.629Z,14.15
2022-09-18T11:47:13.622Z,13.79
2022-09-18T11:49:49.554Z,13.43
2022-09-18T11:52:43.490Z,12.98
2022-09-18T11:55:17.521Z,12.68
2022-09-18T11:57:59.354Z,12.41
2022-09-18T12:00:32.444Z,12.29
2022-09-18T12:03:17.088Z,12.31
2022-09-18T12:06:04.292Z,12.51
2022-09-18T12:08:41.953Z,12.68
2022-09-18T12:11:21.078Z,12.89
2022-09-18T12:14:20.279Z,12.78
2022-09-18T12:16:59.143Z,12.69
2022-09-18T12:19:30.362Z,12.76
2022-09-18T12:22:11.432Z,12.78
2022-09-18T12:24:38.394Z,12.74
2022-09-18T12:27:28.814Z,12.83
2022-09-18T12:30:30.457Z,12.90
2022-09-18T12:33:09.597Z,12.89
2022-09-18T12:36:04.804Z,12.85
2022-09-18T12:38:31.744Z,12.75
2022-09-18T12:41:41.974Z,12.77
2022-09-18T12:44:18.597Z,12.79
2022-09-18T12:46:56.895Z,12.95
2022-09-18T12:49:32.690Z,13.01
2022-09-18T12:52:31.535Z,13.03
2022-09-18T12:55:40.408Z,13.06
2022-09-18T12:58:32.123Z,12.96
2022-09-18T13:01:03.871Z,12.94
2022-09-18T13:03:35.250Z,12.91
2022-09-18T13:06:07.597Z,12.97
2022-09-18T13:09:01.900Z,13.18
2022-09-18T13:11:58.762Z,13.42
2022-09-18T13:15:01.057Z,13.66
2022-09-18T13:17:48.795Z,14.05
2022-09-18T13:20:40.391Z,14.14
2022-09-18T13:23:33.515Z,14.26
2022-09-18T13:26:02.571Z,14.41
2022-09-18T13:28:29.841Z,14.41
2022-09-18T13:31:14.966Z,14.37
2022-09-18T13:34:04.381Z,14.16
2022-09-18T13:36:33.659Z,13.99
2022-09-18T13:39:05.249Z,14.04
2022-09-18T13:41:49.248Z,13.95
2022-09-18T13:44:30.824Z,14.00
2022-09-18T13:47:10.037Z,14.10
2022-09-18T13:49:47.282Z,14.21
2022-09-18T13:52:32.896Z,14.29
2022-09-18T13:55:13.151Z,14.38
2022-09-18T13:57:41.505Z,14.43
2022-09-18T14:00:20.843Z,14.40
2022-09-18T14:02:49.448Z,14.41
2022-09-18T14:05:29.672Z,14.33
2022-09-18T14:08:27.104Z,14.17
2022-09-18T14:11:15.816Z,13.95
2022-09-18T14:13:46.346Z,13.66
2022-09-18T14:16:19.349Z,13.50
2022-09-18T14:18:49.160Z,13.35
2022-09-18T14:21:19.084Z,13.07
2022-09-18T14:23:48.499Z,12.93
2022-09-18T14:26:39.679Z,12.81
2022-09-18T14:29:19.483Z,12.81
2022-09-18T14:31:47.225Z,12.83
2022-09-18T14:34:38.036Z,12.88
2022-09-18T14:56:36.605Z,13.34
2022-09-18T14:59:07.061Z,13.15
2022-09-18T15:01:38.586Z,12.93
2022-09-18T15:04:11.650Z,12.88
2022-09-18T15:06:44.159Z,12.81
2022-09-18T15:09:15.210Z,12.80
2022-09-18T15:12:01.832Z,12.72
2022-09-18T15:14:42.752Z,12.67
2022-09-18T15:17:27.945Z,12.46
2022-09-18T15:20:16.254Z,12.20
2022-09-18T15:22:43.722Z,12.05
2022-09-18T15:25:15.271Z,11.63
2022-09-18T15:27:44.268Z,11.27
2022-09-18T15:30:20.046Z,10.99
2022-09-18T15:33:05.090Z,10.78
2022-09-18T15:35:35.416Z,10.59
2022-09-18T15:38:05.710Z,10.50
2022-09-18T15:40:35.964Z,10.43
2022-09-18T15:43:07.914Z,10.34
2022-09-18T15:45:36.903Z,10.29
2022-09-18T15:48:35.354Z,10.20
2022-09-18T15:51:23.201Z,10.14
2022-09-18T15:54:09.210Z,10.13
2022-09-18T15:56:39.669Z,10.11
2022-09-18T15:59:16.575Z,10.06
2022-09-18T16:01:49.920Z,10.07
2022-09-18T16:04:24.311Z,10.02
2022-09-18T16:07:00.373Z,9.95
2022-09-18T16:09:41.157Z,9.89
2022-09-18T16:12:30.783Z,9.83
2022-09-18T16:15:20.210Z,9.74
2022-09-18T16:17:47.303Z,9.67
2022-09-18T16:20:38.309Z,9.63
2022-09-18T16:23:11.086Z,9.64
2022-09-18T16:25:41.569Z,9.60
2022-09-18T16:28:24.572Z,9.55
2022-09-18T16:30:52.242Z,9.61
2022-09-18T16:33:22.407Z,9.59
2022-09-18T16:36:03.154Z,9.58
2022-09-18T16:38:31.294Z,9.55
2022-09-18T16:40:58.474Z,9.57
2022-09-18T16:43:25.421Z,9.54
2022-09-18T16:45:52.691Z,9.49
2022-09-18T16:48:19.858Z,9.43
2022-09-18T16:50:48.114Z,9.41
2022-09-18T16:53:15.252Z,9.41
2022-09-18T16:55:49.711Z,9.37
2022-09-18T16:58:19.180Z,9.34
2022-09-18T17:00:46.383Z,9.24
2022-09-18T17:03:13.420Z,9.18
2022-09-18T17:05:41.540Z,9.13
2022-09-18T17:08:08.659Z,9.07
2022-09-18T17:10:36.016Z,8.95
2022-09-18T17:13:04.596Z,8.88
2022-09-18T17:15:31.670Z,8.83
2022-09-18T17:17:58.520Z,8.80
2022-09-18T17:20:25.342Z,8.80
2022-09-18T17:22:53.136Z,8.77
2022-09-18T17:25:20.060Z,8.77
2022-09-18T17:27:49.914Z,8.74
2022-09-18T17:30:17.498Z,8.74
2022-09-18T17:32:44.349Z,8.77
2022-09-18T17:35:11.068Z,8.78
2022-09-18T17:37:38.056Z,8.78
2022-09-18T17:40:05.277Z,8.81
2022-09-18T17:42:32.126Z,8.85
2022-09-18T17:44:59.219Z,8.86
2022-09-18T17:47:26.058Z,8.85
2022-09-18T17:49:53.904Z,8.86
2022-09-18T17:52:20.937Z,8.87
2022-09-18T17:54:47.723Z,8.89
2022-09-18T17:57:14.490Z,8.94
2022-09-18T17:59:44.105Z,8.92
2022-09-18T18:02:13.097Z,8.94
2022-09-18T18:04:40.301Z,8.92
2022-09-18T18:07:07.311Z,8.93
2022-09-18T18:09:37.610Z,8.90
2022-09-18T18:12:05.509Z,8.91
2022-09-18T18:14:34.960Z,8.90
2022-09-18T18:17:01.911Z,8.89
2022-09-18T18:19:28.861Z,8.97
2022-09-18T18:21:56.000Z,9.00
2022-09-18T18:24:23.901Z,9.04
2022-09-18T18:26:50.895Z,9.08
2022-09-18T18:29:19.417Z,9.12
2022-09-18T18:31:49.180Z,9.16
2022-09-18T18:34:21.101Z,9.21
2022-09-18T18:36:50.303Z,9.20
2022-09-18T18:39:19.946Z,9.24
2022-09-18T18:41:47.299Z,9.26
2022-09-18T18:44:14.818Z,9.26
2022-09-18T18:46:42.668Z,9.30
2022-09-18T18:49:12.625Z,9.32
2022-09-18T18:51:47.622Z,9.35
2022-09-18T18:54:21.957Z,9.35
2022-09-18T18:56:49.726Z,9.33
2022-09-18T18:59:18.948Z,9.35
2022-09-18T19:01:47.480Z,9.33
2022-09-18T19:04:19.292Z,9.33
2022-09-18T19:06:46.711Z,9.30
2022-09-18T19:09:22.578Z,9.30
2022-09-18T19:11:51.057Z,9.35
2022-09-18T19:14:26.110Z,9.31
2022-09-18T19:16:54.655Z,9.33
2022-09-18T19:19:23.780Z,9.32
2022-09-18T19:21:51.363Z,9.34
2022-09-18T19:24:18.708Z,9.35
2022-09-18T19:26:47.111Z,9.38
2022-09-18T19:29:17.928Z,9.33
2022-09-18T19:31:46.532Z,9.32
2022-09-18T19:34:15.801Z,9.28
2022-09-18T19:36:46.747Z,9.26
2022-09-18T19:39:14.455Z,9.22
2022-09-18T19:41:59.316Z,9.27
2022-09-18T19:44:34.293Z,9.27
2022-09-18T19:47:14.634Z,9.23
2022-09-18T19:49:41.710Z,9.24
2022-09-18T19:52:25.592Z,9.22
2022-09-18T19:54:54.587Z,9.20
2022-09-18T19:57:23.215Z,9.26
2022-09-18T19:59:55.243Z,9.29
2022-09-18T20:02:24.213Z,9.29
2022-09-18T20:04:51.274Z,9.30
2022-09-18T20:07:18.171Z,9.33
2022-09-18T20:09:45.162Z,9.34
2022-09-18T20:12:12.802Z,9.36
2022-09-18T20:14:39.673Z,9.36
2022-09-18T20:17:06.990Z,9.39
2022-09-18T20:19:34.513Z,9.42
2022-09-18T20:22:02.837Z,9.42
2022-09-18T20:24:31.383Z,9.44
2022-09-18T20:26:59.514Z,9.40
2022-09-18T20:29:27.529Z,9.38
2022-09-18T20:31:54.969Z,9.40
2022-09-18T20:34:24.842Z,9.39
2022-09-18T20:36:52.272Z,9.43
2022-09-18T20:39:19.515Z,9.43
2022-09-18T20:41:46.571Z,9.42
2022-09-18T20:44:13.986Z,9.41
2022-09-18T20:46:42.508Z,9.39
2022-09-18T20:49:10.768Z,9.41
2022-09-18T20:51:37.500Z,9.37
2022-09-18T20:54:09.198Z,9.39
2022-09-18T20:56:44.675Z,9.39
2022-09-18T20:59:16.160Z,9.41
2022-09-18T21:01:44.312Z,9.39
2022-09-18T21:04:17.119Z,9.41
2022-09-18T21:06:48.775Z,9.41
2022-09-18T21:09:15.763Z,9.43
2022-09-18T21:11:44.792Z,9.41
2022-09-18T21:14:14.863Z,9.41
2022-09-18T21:16:43.072Z,9.38
2022-09-18T21:19:12.057Z,9.39
2022-09-18T21:21:39.613Z,9.42
2022-09-18T21:24:08.819Z,9.39
2022-09-18T21:26:46.798Z,9.41
2022-09-18T21:29:17.770Z,9.36
2022-09-18T21:31:46.000Z,9.36
2022-09-18T21:34:24.414Z,9.31
2022-09-18T21:37:01.807Z,9.29
2022-09-18T21:39:29.966Z,9.26
2022-09-18T21:41:58.759Z,9.22
2022-09-18T21:44:27.563Z,9.19
2022-09-18T21:47:00.032Z,9.12
2022-09-18T21:49:29.139Z,9.09
2022-09-18T21:52:07.685Z,9.10
2022-09-18T21:54:35.218Z,9.08
2022-09-18T21:57:02.003Z,9.07
2022-09-18T21:59:30.665Z,8.99
2022-09-18T22:01:59.020Z,8.92
2022-09-18T22:04:28.346Z,8.87
2022-09-18T22:06:57.155Z,8.77
2022-09-18T22:09:32.814Z,8.77
2022-09-18T22:12:01.336Z,8.73
2022-09-18T22:14:32.432Z,8.68
2022-09-18T22:17:04.531Z,8.64
2022-09-18T22:19:33.388Z,8.64
2022-09-18T22:22:01.486Z,8.60
2022-09-18T22:24:29.207Z,8.65
2022-09-18T22:27:00.019Z,8.68
2022-09-18T22:29:34.365Z,8.70
2022-09-18T22:32:01.713Z,8.65
2022-09-18T22:34:31.242Z,8.58
2022-09-18T22:37:00.905Z,8.49
2022-09-18T22:39:28.781Z,8.44
2022-09-18T22:41:55.972Z,8.38
2022-09-18T22:44:22.919Z,8.28
2022-09-18T22:46:55.049Z,8.17
2022-09-18T22:49:23.335Z,8.15
2022-09-18T22:51:50.759Z,8.04
2022-09-18T22:54:23.913Z,7.99
2022-09-18T22:56:52.349Z,7.94
2022-09-18T22:59:21.941Z,7.91
2022-09-18T23:01:53.933Z,7.90
2022-09-18T23:04:23.630Z,7.89
2022-09-18T23:06:51.086Z,7.85
2022-09-18T23:09:19.270Z,7.85
2022-09-18T23:11:49.140Z,7.78
2022-09-18T23:14:18.653Z,7.73
2022-09-18T23:16:45.597Z,7.62
2022-09-18T23:19:26.119Z,7.61
2022-09-18T23:21:53.981Z,7.57
2022-09-18T23:24:22.469Z,7.47
2022-09-18T23:26:51.550Z,7.44
2022-09-18T23:29:21.195Z,7.43
2022-09-18T23:31:54.205Z,7.43
2022-09-18T23:34:23.560Z,7.38
2022-09-18T23:36:53.273Z,7.33
2022-09-18T23:39:27.010Z,7.27
2022-09-18T23:41:56.141Z,7.21
2022-09-18T23:44:23.598Z,7.15
2022-09-18T23:46:51.124Z,7.10
2022-09-18T23:49:23.762Z,7.08
2022-09-18T23:51:54.067Z,7.07
2022-09-18T23:54:28.577Z,7.00
2022-09-18T23:56:55.860Z,6.98
2022-09-18T23:59:24.688Z,6.97
